Time;durP1;ratioP1;P1;durP2;ratioP2;P2;SDS_P1;SDS_P2;PMS_P1;PMS_P2;Temp;Humidity;BMP_temperature;BMP_pressure;BME280_temperature;BME280_humidity;BME280_pressure;Samples;Min_cycle;Max_cycle;Signal;HPM_P1;HPM_P2
2023/05/14 00:00:10;;;;;;;;;;;;;;;20.27;64.09;101773.63;1251152;23;610;-65
2023/05/14 00:01:01;;;;;;;;;;;;;;;20.24;64.76;101765.81;1250227;23;1901;-65
2023/05/14 00:01:51;;;;;;;;;;;;;;;20.24;64.19;101771.25;1250856;23;662;-65
2023/05/14 00:02:42;;;;;;;;;;;;;;;20.23;64.94;101772.22;1251054;23;670;-65
2023/05/14 00:03:32;;;;;;;;;;;;;;;20.22;64.81;101768.66;1250970;23;677;-65
2023/05/14 00:04:22;;;;;;;;;;;;;;;20.24;64.41;101765.81;1251084;23;611;-65
2023/05/14 00:05:13;;;;;;;;;;;;;;;20.25;64.13;101765.66;1247079;23;697;-65
2023/05/14 00:06:03;;;;;;;;;;;;;;;20.26;64.73;101772.78;1249251;23;717;-65
2023/05/14 00:06:54;;;;;;;;;;;;;;;20.26;64.40;101758.38;1247390;23;612;-65
2023/05/14 00:07:44;;;;;;;;;;;;;;;20.20;64.90;101767.09;1247553;23;647;-65
2023/05/14 00:08:35;;;;;;;;;;;;;;;20.18;64.66;101761.81;1249476;23;627;-65
2023/05/14 00:09:25;;;;;;;;;;;;;;;20.19;64.83;101763.53;1250939;23;677;-65
2023/05/14 00:10:17;;;;;;;;;;;;;;;20.20;64.43;101758.97;1251126;23;603;-65
2023/05/14 00:11:08;;;;;;;;;;;;;;;20.23;64.22;101753.28;1250896;23;696;-65
2023/05/14 00:11:58;;;;;;;;;;;;;;;20.24;64.86;101755.00;1249350;23;606;-65
2023/05/14 00:12:49;;;;;;;;;;;;;;;20.22;64.86;101757.84;1250971;23;681;-65
2023/05/14 00:13:39;;;;;;;;;;;;;;;20.22;64.90;101754.28;1247172;23;606;-65
2023/05/14 00:14:30;;;;;;;;;;;;;;;20.20;64.57;101754.41;1251099;23;629;-65
2023/05/14 00:15:20;;;;;;;;;;;;;;;20.21;64.62;101758.84;1250853;23;528;-65
2023/05/14 00:16:11;;;;;;;;;;;;;;;20.21;64.90;101744.44;1250938;23;677;-65
2023/05/14 00:17:01;;;;;;;;;;;;;;;20.21;64.42;101750.72;1246881;23;730;-65
2023/05/14 00:17:52;;;;;;;;;;;;;;;20.21;65.01;101756.13;1250992;23;701;-65
2023/05/14 00:18:42;;;;;;;;;;;;;;;20.20;64.93;101750.84;1251239;23;665;-65
2023/05/14 00:19:33;;;;;;;;;;;;;;;20.15;65.00;101751.25;1247045;23;650;-65
2023/05/14 00:20:23;;;;;;;;;;;;;;;20.16;64.78;101746.72;1250801;23;645;-65
2023/05/14 00:21:14;;;;;;;;;;;;;;;20.14;64.41;101738.72;1250970;23;1915;-65
2023/05/14 00:22:04;;;;;;;;;;;;;;;20.15;64.68;101743.13;1250776;23;709;-65
2023/05/14 00:22:55;;;;;;;;;;;;;;;20.14;64.82;101738.72;1246851;23;694;-65
2023/05/14 00:23:45;;;;;;;;;;;;;;;20.13;65.02;101736.16;1249252;23;693;-65
2023/05/14 00:24:36;;;;;;;;;;;;;;;20.12;64.58;101738.00;1246898;23;678;-65
2023/05/14 00:25:26;;;;;;;;;;;;;;;20.14;64.95;101735.16;1250701;23;661;-65
2023/05/14 00:26:17;;;;;;;;;;;;;;;20.17;64.74;101730.31;1247104;23;646;-65
2023/05/14 00:27:07;;;;;;;;;;;;;;;20.16;65.02;101731.31;1247478;23;687;-65
2023/05/14 00:27:58;;;;;;;;;;;;;;;20.15;64.98;101729.59;1247169;23;643;-65
2023/05/14 00:28:48;;;;;;;;;;;;;;;20.17;64.87;101733.03;1251320;23;646;-65
2023/05/14 00:29:39;;;;;;;;;;;;;;;20.19;64.93;101730.19;1247528;23;658;-65
2023/05/14 00:30:29;;;;;;;;;;;;;;;20.18;64.71;101733.88;1247872;23;670;-65
2023/05/14 00:31:20;;;;;;;;;;;;;;;20.16;64.91;101731.31;1248026;23;639;-65
2023/05/14 00:32:10;;;;;;;;;;;;;;;20.14;64.76;101733.31;1251282;23;646;-65
2023/05/14 00:33:01;;;;;;;;;;;;;;;20.13;64.74;101733.44;1247249;23;650;-65
2023/05/14 00:33:51;;;;;;;;;;;;;;;20.14;64.97;101727.91;1251423;23;603;-65
2023/05/14 00:34:41;;;;;;;;;;;;;;;20.11;65.27;101736.28;1251460;23;621;-65
2023/05/14 00:35:34;;;;;;;;;;;;;;;20.09;65.11;101739.13;1251290;23;657;-64
2023/05/14 00:36:25;;;;;;;;;;;;;;;20.08;65.11;101723.88;1251487;23;622;-65
2023/05/14 00:37:15;;;;;;;;;;;;;;;20.07;64.86;101727.59;1251323;23;673;-65
2023/05/14 00:38:06;;;;;;;;;;;;;;;20.11;64.84;101733.59;1247065;23;674;-64
2023/05/14 00:38:56;;;;;;;;;;;;;;;20.09;65.14;101722.91;1247411;23;698;-65
2023/05/14 00:39:46;;;;;;;;;;;;;;;20.06;65.23;101728.59;1249621;23;676;-65
2023/05/14 00:40:37;;;;;;;;;;;;;;;20.09;65.33;101720.19;1251319;23;657;-65
2023/05/14 00:41:27;;;;;;;;;;;;;;;20.13;65.12;101733.44;1251354;23;629;-65
2023/05/14 00:42:18;;;;;;;;;;;;;;;20.10;65.24;101724.59;1251554;23;634;-65
2023/05/14 00:43:08;;;;;;;;;;;;;;;20.11;65.20;101723.63;1251218;23;629;-65
2023/05/14 00:43:58;;;;;;;;;;;;;;;20.14;65.02;101721.63;1246933;23;1051;-64
2023/05/14 00:44:49;;;;;;;;;;;;;;;20.12;65.40;101713.66;1250680;23;640;-65
2023/05/14 00:45:39;;;;;;;;;;;;;;;20.14;64.70;101725.19;1247033;23;753;-65
2023/05/14 00:46:30;;;;;;;;;;;;;;;20.11;64.69;101718.19;1251525;23;614;-65
2023/05/14 00:47:20;;;;;;;;;;;;;;;20.09;64.50;101722.03;1251244;23;641;-65
2023/05/14 00:48:11;;;;;;;;;;;;;;;20.09;64.73;101717.47;1247428;23;1307;-64
2023/05/14 00:49:01;;;;;;;;;;;;;;;20.09;64.42;101717.47;1247563;23;714;-65
2023/05/14 00:49:52;;;;;;;;;;;;;;;20.07;64.83;101716.75;1249802;23;674;-65
2023/05/14 00:50:42;;;;;;;;;;;;;;;20.09;64.30;101725.59;1251277;23;653;-65
2023/05/14 00:51:32;;;;;;;;;;;;;;;20.09;64.49;101720.19;1249902;23;685;-65
2023/05/14 00:52:23;;;;;;;;;;;;;;;20.04;64.97;101714.38;1247349;23;615;-65
2023/05/14 00:53:13;;;;;;;;;;;;;;;20.05;64.97;101712.50;1247576;23;658;-65
2023/05/14 00:54:04;;;;;;;;;;;;;;;20.05;64.70;101715.22;1251444;23;630;-65
2023/05/14 00:54:54;;;;;;;;;;;;;;;20.04;64.84;101716.22;1247489;23;658;-65
2023/05/14 00:55:44;;;;;;;;;;;;;;;20.02;64.91;101710.09;1251415;23;657;-64
2023/05/14 00:56:35;;;;;;;;;;;;;;;20.00;65.30;101703.94;1247780;23;674;-65
2023/05/14 00:57:25;;;;;;;;;;;;;;;20.00;64.92;101709.38;1247911;23;635;-65
2023/05/14 00:58:16;;;;;;;;;;;;;;;20.01;64.88;101697.53;1248063;23;719;-64
2023/05/14 00:59:06;;;;;;;;;;;;;;;19.99;65.38;101696.81;1246797;23;627;-65
2023/05/14 00:59:56;;;;;;;;;;;;;;;19.98;65.37;101709.50;1251451;23;601;-65
2023/05/14 01:00:47;;;;;;;;;;;;;;;19.97;64.80;101701.53;1251177;23;630;-66
2023/05/14 01:01:37;;;;;;;;;;;;;;;19.97;65.22;101706.94;1246965;23;611;-67
2023/05/14 01:02:28;;;;;;;;;;;;;;;20.03;65.04;101706.38;1251315;23;677;-65
2023/05/14 01:03:18;;;;;;;;;;;;;;;20.04;65.13;101702.69;1251419;23;611;-65
2023/05/14 01:04:09;;;;;;;;;;;;;;;20.01;64.92;101702.97;1251372;23;614;-64
2023/05/14 01:04:59;;;;;;;;;;;;;;;19.99;64.87;101699.53;1247869;23;622;-65
2023/05/14 01:05:49;;;;;;;;;;;;;;;19.95;64.91;101709.78;1247476;23;620;-65
2023/05/14 01:06:40;;;;;;;;;;;;;;;19.96;65.38;101710.63;1249719;23;622;-65
2023/05/14 01:07:30;;;;;;;;;;;;;;;19.93;65.19;101709.06;1251233;23;646;-65
2023/05/14 01:08:21;;;;;;;;;;;;;;;19.94;65.04;101710.75;1251353;23;657;-64
2023/05/14 01:09:11;;;;;;;;;;;;;;;19.97;65.09;101710.50;1251292;23;677;-65
2023/05/14 01:10:01;;;;;;;;;;;;;;;19.97;64.62;101704.22;1251474;23;626;-64
2023/05/14 01:10:52;;;;;;;;;;;;;;;19.97;64.91;101713.19;1251298;23;606;-65
2023/05/14 01:11:42;;;;;;;;;;;;;;;19.98;64.79;101711.34;1251207;23;658;-65
2023/05/14 01:12:33;;;;;;;;;;;;;;;19.91;65.07;101704.78;1247284;23;686;-65
2023/05/14 01:13:23;;;;;;;;;;;;;;;19.91;65.30;101711.03;1246439;23;690;-64
2023/05/14 01:14:14;;;;;;;;;;;;;;;19.92;65.05;101707.34;1251376;23;677;-64
2023/05/14 01:15:04;;;;;;;;;;;;;;;19.91;65.23;101708.34;1247480;23;634;-64
2023/05/14 01:15:55;;;;;;;;;;;;;;;19.89;65.12;101706.75;1247184;23;612;-64
2023/05/14 01:16:45;;;;;;;;;;;;;;;19.89;65.03;101704.91;1251453;23;649;-64
2023/05/14 01:17:36;;;;;;;;;;;;;;;19.92;64.86;101709.19;1251317;23;739;-64
2023/05/14 01:18:26;;;;;;;;;;;;;;;19.88;64.76;101703.22;1247532;23;709;-64
2023/05/14 01:19:17;;;;;;;;;;;;;;;19.88;64.60;101707.78;1251405;23;637;-64
2023/05/14 01:20:07;;;;;;;;;;;;;;;19.93;64.87;101713.59;1251227;23;658;-64
2023/05/14 01:20:57;;;;;;;;;;;;;;;19.94;64.99;101707.19;1251417;23;1885;-65
2023/05/14 01:21:48;;;;;;;;;;;;;;;19.90;64.23;101705.75;1251298;23;618;-65
2023/05/14 01:22:38;;;;;;;;;;;;;;;19.86;64.78;101710.63;1251187;23;634;-65
2023/05/14 01:23:29;;;;;;;;;;;;;;;19.81;64.70;101701.19;1247134;23;610;-65
2023/05/14 01:24:19;;;;;;;;;;;;;;;19.82;64.55;101711.03;1251268;23;622;-65
2023/05/14 01:25:10;;;;;;;;;;;;;;;19.81;65.03;101714.72;1251409;23;657;-65
2023/05/14 01:26:00;;;;;;;;;;;;;;;19.84;64.99;101704.50;1251056;23;669;-65
2023/05/14 01:26:51;;;;;;;;;;;;;;;19.86;65.05;101705.22;1247053;23;777;-65
2023/05/14 01:27:41;;;;;;;;;;;;;;;19.88;64.64;101707.78;1251258;23;610;-65
2023/05/14 01:28:31;;;;;;;;;;;;;;;19.86;64.87;101704.34;1251135;23;654;-65
2023/05/14 01:29:22;;;;;;;;;;;;;;;19.84;64.97;101704.50;1251262;23;665;-65
2023/05/14 01:30:12;;;;;;;;;;;;;;;19.79;64.76;101711.31;1247799;23;686;-65
2023/05/14 01:31:03;;;;;;;;;;;;;;;19.80;65.10;101703.06;1247638;23;659;-65
2023/05/14 01:31:53;;;;;;;;;;;;;;;19.80;65.05;101711.16;1248066;23;651;-65
2023/05/14 01:32:44;;;;;;;;;;;;;;;19.82;65.22;101708.31;1251331;23;685;-64
2023/05/14 01:33:34;;;;;;;;;;;;;;;19.84;64.99;101712.59;1251273;23;621;-64
2023/05/14 01:34:24;;;;;;;;;;;;;;;19.81;65.02;101707.47;1251485;23;677;-65
2023/05/14 01:35:15;;;;;;;;;;;;;;;19.80;65.15;101707.59;1251242;23;603;-65
2023/05/14 01:36:05;;;;;;;;;;;;;;;19.80;65.13;101707.59;1251157;23;634;-65
2023/05/14 01:36:56;;;;;;;;;;;;;;;19.81;65.32;101710.16;1251258;23;638;-65
2023/05/14 01:37:46;;;;;;;;;;;;;;;19.81;64.42;101707.47;1250867;23;653;-64
2023/05/14 01:38:37;;;;;;;;;;;;;;;19.83;65.34;101701.91;1251395;23;629;-65
2023/05/14 01:39:27;;;;;;;;;;;;;;;19.81;64.76;101698.50;1250870;23;677;-64
2023/05/14 01:40:18;;;;;;;;;;;;;;;19.84;64.55;101695.53;1247368;23;630;-64
2023/05/14 01:41:08;;;;;;;;;;;;;;;19.85;64.08;101695.38;1247639;23;1881;-64
2023/05/14 01:41:58;;;;;;;;;;;;;;;19.85;64.97;101691.81;1247699;23;615;-65
2023/05/14 01:42:50;;;;;;;;;;;;;;;19.80;64.72;101699.50;1250614;23;666;-64
2023/05/14 01:43:41;;;;;;;;;;;;;;;19.75;64.50;101692.63;1247093;23;623;-65
2023/05/14 01:44:31;;;;;;;;;;;;;;;19.70;64.83;101697.63;1247447;23;857;-65
2023/05/14 01:45:22;;;;;;;;;;;;;;;19.69;65.34;101697.75;1251273;23;634;-65
2023/05/14 01:46:12;;;;;;;;;;;;;;;19.70;64.93;101694.94;1247275;23;730;-65
2023/05/14 01:47:03;;;;;;;;;;;;;;;19.73;64.83;101689.22;1247019;23;650;-65
2023/05/14 01:47:53;;;;;;;;;;;;;;;19.75;65.12;101695.34;1251187;23;689;-65
2023/05/14 01:48:44;;;;;;;;;;;;;;;19.77;65.38;101685.25;1246712;23;646;-65
2023/05/14 01:49:36;;;;;;;;;;;;;;;19.80;64.90;101685.97;1247472;23;686;-65
2023/05/14 01:50:26;;;;;;;;;;;;;;;19.74;64.48;101682.81;1247437;23;675;-65
2023/05/14 01:51:16;;;;;;;;;;;;;;;19.77;65.25;101685.25;1247955;23;749;-65
2023/05/14 01:52:07;;;;;;;;;;;;;;;19.76;64.73;101683.53;1250859;23;689;-65
2023/05/14 01:52:57;;;;;;;;;;;;;;;19.76;64.83;101685.38;1250689;23;637;-65
2023/05/14 01:53:48;;;;;;;;;;;;;;;19.74;64.41;101682.81;1251183;23;665;-64
2023/05/14 01:54:38;;;;;;;;;;;;;;;19.77;64.31;101687.09;1251085;23;646;-65
2023/05/14 01:55:29;;;;;;;;;;;;;;;19.74;64.28;101680.09;1247650;23;631;-65
2023/05/14 01:56:20;;;;;;;;;;;;;;;19.76;64.63;101680.81;1249691;23;735;-64
2023/05/14 01:57:11;;;;;;;;;;;;;;;19.75;64.64;101684.53;1248847;23;681;-65
2023/05/14 01:58:01;;;;;;;;;;;;;;;19.76;64.48;101685.38;1251058;23;622;-65
2023/05/14 01:58:52;;;;;;;;;;;;;;;19.77;64.66;101682.53;1251160;23;617;-64
2023/05/14 01:59:42;;;;;;;;;;;;;;;19.76;64.46;101680.81;1250921;23;637;-64
2023/05/14 02:00:33;;;;;;;;;;;;;;;19.76;64.63;101680.81;1251248;23;649;-65
2023/05/14 02:01:24;;;;;;;;;;;;;;;19.78;64.08;101677.97;1251163;23;621;-64
2023/05/14 02:02:15;;;;;;;;;;;;;;;19.77;64.49;101677.13;1247079;23;662;-64
2023/05/14 02:03:05;;;;;;;;;;;;;;;19.74;64.46;101677.41;1250922;23;630;-65
2023/05/14 02:03:56;;;;;;;;;;;;;;;19.73;64.67;101677.53;1251198;23;660;-64
2023/05/14 02:04:46;;;;;;;;;;;;;;;19.69;64.96;101676.97;1250917;23;672;-65
2023/05/14 02:05:37;;;;;;;;;;;;;;;19.68;64.75;101683.38;1249345;23;731;-65
2023/05/14 02:06:27;;;;;;;;;;;;;;;19.68;64.50;101680.69;1247379;23;622;-65
2023/05/14 02:07:17;;;;;;;;;;;;;;;19.69;64.67;101668.88;1247658;23;666;-64
2023/05/14 02:08:08;;;;;;;;;;;;;;;19.67;64.95;101670.84;1247862;23;666;-65
2023/05/14 02:08:58;;;;;;;;;;;;;;;19.66;65.31;101674.56;1247266;23;650;-65
2023/05/14 02:09:49;;;;;;;;;;;;;;;19.69;64.51;101684.25;1251324;23;613;-65
2023/05/14 02:10:39;;;;;;;;;;;;;;;19.69;64.59;101676.13;1251092;23;601;-64
2023/05/14 02:11:30;;;;;;;;;;;;;;;19.70;64.97;101673.28;1250583;23;623;-65
2023/05/14 02:12:21;;;;;;;;;;;;;;;19.69;64.52;101668.88;1251126;23;626;-64
2023/05/14 02:13:11;;;;;;;;;;;;;;;19.67;64.48;101672.69;1247357;23;714;-65
2023/05/14 02:14:02;;;;;;;;;;;;;;;19.65;65.26;101672.84;1251393;23;661;-64
2023/05/14 02:14:52;;;;;;;;;;;;;;;19.63;64.64;101666.72;1250980;23;613;-65
2023/05/14 02:15:42;;;;;;;;;;;;;;;19.60;65.19;101671.53;1250703;23;669;-65
2023/05/14 02:16:33;;;;;;;;;;;;;;;19.61;64.90;101667.84;1249459;23;646;-64
2023/05/14 02:17:23;;;;;;;;;;;;;;;19.62;64.72;101675.81;1250739;23;904;-65
2023/05/14 02:18:14;;;;;;;;;;;;;;;19.63;65.00;101671.25;1247023;23;643;-65
2023/05/14 02:19:05;;;;;;;;;;;;;;;19.58;65.28;101677.06;1250906;23;775;-65
2023/05/14 02:19:55;;;;;;;;;;;;;;;19.59;64.87;101677.94;1247424;23;725;-65
2023/05/14 02:20:46;;;;;;;;;;;;;;;19.58;65.45;101679.78;1248275;23;681;-65
2023/05/14 02:21:36;;;;;;;;;;;;;;;19.60;65.11;101685.06;1247741;23;682;-65
2023/05/14 02:22:27;;;;;;;;;;;;;;;19.58;65.09;101679.78;1250153;23;689;-65
2023/05/14 02:23:17;;;;;;;;;;;;;;;19.57;64.71;101672.66;1250831;23;653;-65
2023/05/14 02:24:07;;;;;;;;;;;;;;;19.57;64.66;101675.34;1250825;23;665;-65
2023/05/14 02:24:58;;;;;;;;;;;;;;;19.57;64.73;101675.34;1250939;23;649;-65
2023/05/14 02:25:48;;;;;;;;;;;;;;;19.54;64.76;101675.63;1250770;23;650;-65
2023/05/14 02:26:39;;;;;;;;;;;;;;;19.54;65.10;101672.94;1250968;23;832;-65
2023/05/14 02:27:29;;;;;;;;;;;;;;;19.56;64.98;101668.25;1247403;23;773;-65
2023/05/14 02:28:19;;;;;;;;;;;;;;;19.55;65.04;101666.53;1247224;23;635;-64
2023/05/14 02:29:10;;;;;;;;;;;;;;;19.56;64.66;101670.94;1247299;23;646;-65
2023/05/14 02:30:00;;;;;;;;;;;;;;;19.59;65.21;101672.53;1250649;23;609;-64
2023/05/14 02:30:51;;;;;;;;;;;;;;;19.58;64.62;101671.66;1250909;23;626;-65
2023/05/14 02:31:42;;;;;;;;;;;;;;;19.56;64.66;101676.34;1251016;23;677;-65
2023/05/14 02:32:32;;;;;;;;;;;;;;;19.56;65.66;101660.13;1247052;23;639;-66
2023/05/14 02:33:23;;;;;;;;;;;;;;;19.55;65.33;101669.22;1251031;23;767;-65
2023/05/14 02:34:13;;;;;;;;;;;;;;;19.58;65.16;101670.81;1250728;23;669;-65
2023/05/14 02:35:03;;;;;;;;;;;;;;;19.55;64.86;101666.53;1251050;23;673;-65
2023/05/14 02:35:54;;;;;;;;;;;;;;;19.57;64.71;101669.09;1251129;23;653;-65
2023/05/14 02:36:44;;;;;;;;;;;;;;;19.56;64.61;101668.25;1247388;23;733;-65
2023/05/14 02:37:35;;;;;;;;;;;;;;;19.55;64.76;101660.25;1251027;23;661;-65
2023/05/14 02:38:25;;;;;;;;;;;;;;;19.55;65.44;101671.06;1250747;23;649;-65
2023/05/14 02:39:16;;;;;;;;;;;;;;;19.55;64.98;101655.72;1248280;23;685;-65
2023/05/14 02:40:06;;;;;;;;;;;;;;;19.55;64.65;101671.94;1250863;23;622;-65
2023/05/14 02:40:57;;;;;;;;;;;;;;;19.56;64.76;101668.25;1250914;23;1881;-65
2023/05/14 02:41:47;;;;;;;;;;;;;;;19.54;65.30;101664.81;1247282;23;670;-65
2023/05/14 02:42:37;;;;;;;;;;;;;;;19.55;64.59;101665.66;1247325;23;626;-65
2023/05/14 02:43:28;;;;;;;;;;;;;;;19.50;65.18;101663.41;1247541;23;619;-64
2023/05/14 02:44:18;;;;;;;;;;;;;;;19.49;65.05;101661.66;1250821;23;676;-65
2023/05/14 02:45:09;;;;;;;;;;;;;;;19.50;65.60;101662.53;1249392;23;595;-65
2023/05/14 02:45:59;;;;;;;;;;;;;;;19.49;64.83;101661.66;1246988;23;574;-65
2023/05/14 02:46:50;;;;;;;;;;;;;;;19.49;65.04;101658.97;1246653;23;619;-65
2023/05/14 02:47:41;;;;;;;;;;;;;;;19.51;65.30;101653.44;1250930;23;662;-65
2023/05/14 02:48:31;;;;;;;;;;;;;;;19.52;65.46;101663.28;1246615;23;1319;-65
2023/05/14 02:49:21;;;;;;;;;;;;;;;19.50;64.90;101649.88;1250819;23;673;-65
2023/05/14 02:50:12;;;;;;;;;;;;;;;19.48;64.92;101659.94;1251272;23;670;-65
2023/05/14 02:51:02;;;;;;;;;;;;;;;19.46;65.20;101659.22;1251060;23;673;-65
2023/05/14 02:51:53;;;;;;;;;;;;;;;19.45;64.87;101654.81;1250904;23;630;-65
2023/05/14 02:52:43;;;;;;;;;;;;;;;19.46;65.67;101659.22;1251075;23;622;-65
2023/05/14 02:53:34;;;;;;;;;;;;;;;19.45;65.40;101652.09;1250952;23;670;-64
2023/05/14 02:54:24;;;;;;;;;;;;;;;19.43;65.05;101656.78;1250783;23;1037;-65
2023/05/14 02:55:15;;;;;;;;;;;;;;;19.40;65.59;101657.06;1250145;23;870;-65
2023/05/14 02:56:05;;;;;;;;;;;;;;;19.38;65.31;101653.63;1251172;23;622;-65
2023/05/14 02:56:55;;;;;;;;;;;;;;;19.39;65.23;101661.59;1250808;23;630;-65
2023/05/14 02:57:46;;;;;;;;;;;;;;;19.38;65.93;101659.03;1246669;23;620;-65
2023/05/14 02:58:36;;;;;;;;;;;;;;;19.36;65.47;101655.63;1250688;23;658;-65
2023/05/14 02:59:27;;;;;;;;;;;;;;;19.36;66.07;101653.78;1250999;23;657;-65
2023/05/14 03:00:17;;;;;;;;;;;;;;;19.39;65.19;101658.91;1250808;23;613;-65
2023/05/14 03:01:07;;;;;;;;;;;;;;;19.38;65.19;101659.91;1250892;23;1947;-65
2023/05/14 03:01:58;;;;;;;;;;;;;;;19.38;64.92;101661.75;1250879;23;666;-65
2023/05/14 03:02:48;;;;;;;;;;;;;;;19.38;65.60;101661.75;1250755;23;642;-65
2023/05/14 03:03:39;;;;;;;;;;;;;;;19.39;65.85;101649.94;1249142;23;614;-65
2023/05/14 03:04:29;;;;;;;;;;;;;;;19.38;66.09;101653.63;1251135;23;653;-65
2023/05/14 03:05:20;;;;;;;;;;;;;;;19.37;65.07;101655.47;1251211;23;673;-65
2023/05/14 03:06:10;;;;;;;;;;;;;;;19.38;65.13;101654.50;1251136;23;665;-65
2023/05/14 03:07:01;;;;;;;;;;;;;;;19.40;65.00;101651.66;1246601;23;663;-65
2023/05/14 03:07:52;;;;;;;;;;;;;;;19.39;65.48;101660.75;1250761;23;623;-65
2023/05/14 03:08:42;;;;;;;;;;;;;;;19.38;65.60;101653.63;1250582;23;664;-65
2023/05/14 03:09:33;;;;;;;;;;;;;;;19.36;65.34;101656.47;1250600;23;629;-65
2023/05/14 03:10:23;;;;;;;;;;;;;;;19.36;65.53;101655.63;1250724;23;661;-65
2023/05/14 03:11:14;;;;;;;;;;;;;;;19.36;65.11;101655.63;1246657;23;631;-65
2023/05/14 03:12:04;;;;;;;;;;;;;;;19.34;65.27;101655.78;1247119;23;713;-65
2023/05/14 03:12:55;;;;;;;;;;;;;;;19.34;65.58;101650.38;1246836;23;630;-65
2023/05/14 03:13:45;;;;;;;;;;;;;;;19.31;65.46;101653.34;1251066;23;669;-65
2023/05/14 03:14:36;;;;;;;;;;;;;;;19.34;65.40;101658.47;1247649;23;619;-65
2023/05/14 03:15:26;;;;;;;;;;;;;;;19.33;65.29;101659.47;1247415;23;632;-65
2023/05/14 03:16:16;;;;;;;;;;;;;;;19.29;65.46;101659.88;1249946;23;658;-65
2023/05/14 03:17:07;;;;;;;;;;;;;;;19.32;65.10;101662.31;1249042;23;650;-65
2023/05/14 03:17:57;;;;;;;;;;;;;;;19.31;65.73;101655.19;1249131;23;561;-65
2023/05/14 03:18:48;;;;;;;;;;;;;;;19.33;65.84;101651.38;1249150;23;705;-65
2023/05/14 03:19:38;;;;;;;;;;;;;;;19.30;65.96;101658.88;1250986;23;665;-65
2023/05/14 03:20:28;;;;;;;;;;;;;;;19.32;65.04;101659.59;1250647;23;614;-65
2023/05/14 03:21:19;;;;;;;;;;;;;;;19.30;65.21;101661.59;1250748;23;1881;-65
2023/05/14 03:22:09;;;;;;;;;;;;;;;19.28;65.74;101653.59;1250684;23;665;-65
2023/05/14 03:23:00;;;;;;;;;;;;;;;19.28;65.26;101652.75;1246546;23;635;-65
2023/05/14 03:23:50;;;;;;;;;;;;;;;19.28;65.96;101655.47;1246740;23;631;-65
2023/05/14 03:24:41;;;;;;;;;;;;;;;19.28;65.48;101655.47;1250778;23;647;-65
2023/05/14 03:25:31;;;;;;;;;;;;;;;19.32;66.06;101655.06;1251156;23;657;-65
2023/05/14 03:26:22;;;;;;;;;;;;;;;19.34;65.04;101657.63;1250777;23;662;-65
2023/05/14 03:27:12;;;;;;;;;;;;;;;19.36;65.23;101656.47;1250797;23;646;-66
2023/05/14 03:28:02;;;;;;;;;;;;;;;19.38;64.99;101667.16;1250721;23;654;-65
2023/05/14 03:28:53;;;;;;;;;;;;;;;19.34;65.41;101657.63;1251000;23;610;-65
2023/05/14 03:29:43;;;;;;;;;;;;;;;19.33;65.36;101648.66;1250775;23;642;-65
2023/05/14 03:30:34;;;;;;;;;;;;;;;19.32;65.78;101652.34;1250877;23;678;-65
2023/05/14 03:31:24;;;;;;;;;;;;;;;19.32;65.12;101655.06;1250892;23;618;-65
2023/05/14 03:32:15;;;;;;;;;;;;;;;19.34;65.02;101657.63;1251322;23;614;-65
2023/05/14 03:33:05;;;;;;;;;;;;;;;19.32;65.16;101646.09;1251085;23;650;-65
2023/05/14 03:33:56;;;;;;;;;;;;;;;19.28;65.30;101645.50;1251061;23;598;-65
2023/05/14 03:34:46;;;;;;;;;;;;;;;19.24;65.95;101651.31;1251027;23;627;-65
2023/05/14 03:35:36;;;;;;;;;;;;;;;19.21;66.11;101651.56;1250725;23;665;-65
2023/05/14 03:36:27;;;;;;;;;;;;;;;19.21;65.84;101644.31;1247070;23;643;-65
2023/05/14 03:37:17;;;;;;;;;;;;;;;19.23;65.51;101647.75;1249761;23;677;-65
2023/05/14 03:38:08;;;;;;;;;;;;;;;19.24;65.40;101649.47;1249405;23;756;-64
2023/05/14 03:38:58;;;;;;;;;;;;;;;19.26;65.62;101641.22;1250694;23;638;-65
2023/05/14 03:39:48;;;;;;;;;;;;;;;19.27;65.79;101645.63;1249180;23;690;-65
2023/05/14 03:40:39;;;;;;;;;;;;;;;19.25;65.00;101642.22;1246906;23;599;-65
2023/05/14 03:41:29;;;;;;;;;;;;;;;19.27;65.93;101646.50;1251070;23;669;-65
2023/05/14 03:42:20;;;;;;;;;;;;;;;19.28;65.36;101639.25;1251067;23;673;-65
2023/05/14 03:43:10;;;;;;;;;;;;;;;19.28;66.07;101637.41;1246620;23;650;-65
2023/05/14 03:44:00;;;;;;;;;;;;;;;19.28;65.45;101636.53;1250712;23;689;-65
2023/05/14 03:44:51;;;;;;;;;;;;;;;19.22;65.99;101637.94;1247093;23;596;-65
2023/05/14 03:45:41;;;;;;;;;;;;;;;19.19;65.45;101637.34;1247200;23;695;-65
2023/05/14 03:46:32;;;;;;;;;;;;;;;19.20;66.05;101641.75;1247379;23;643;-65
2023/05/14 03:47:22;;;;;;;;;;;;;;;19.21;65.28;101646.16;1250769;23;642;-65
2023/05/14 03:48:13;;;;;;;;;;;;;;;19.20;65.74;101636.34;1250374;23;1080;-64
2023/05/14 03:49:03;;;;;;;;;;;;;;;19.19;65.92;101645.44;1250796;23;681;-65
2023/05/14 03:49:54;;;;;;;;;;;;;;;19.22;65.65;101637.06;1251090;23;625;-65
2023/05/14 03:50:44;;;;;;;;;;;;;;;19.22;65.99;101637.06;1250954;23;621;-65
2023/05/14 03:51:34;;;;;;;;;;;;;;;19.24;65.85;101630.53;1250661;23;529;-65
2023/05/14 03:52:25;;;;;;;;;;;;;;;19.24;65.85;101640.50;1251176;23;606;-65
2023/05/14 03:53:15;;;;;;;;;;;;;;;19.25;65.30;101637.66;1250066;23;660;-65
2023/05/14 03:54:06;;;;;;;;;;;;;;;19.22;65.17;101635.22;1250896;23;719;-65
2023/05/14 03:54:56;;;;;;;;;;;;;;;19.21;65.64;101633.50;1250970;23;593;-65
2023/05/14 03:55:47;;;;;;;;;;;;;;;19.21;65.73;101628.13;1250545;23;622;-65
2023/05/14 03:56:37;;;;;;;;;;;;;;;19.22;65.34;101627.13;1250844;23;626;-65
2023/05/14 03:57:27;;;;;;;;;;;;;;;19.18;65.49;101630.22;1250627;23;757;-65
2023/05/14 03:58:18;;;;;;;;;;;;;;;19.18;65.71;101630.22;1251076;23;669;-65
2023/05/14 03:59:08;;;;;;;;;;;;;;;19.16;65.67;101627.69;1250675;23;795;-66
2023/05/14 03:59:59;;;;;;;;;;;;;;;19.18;65.53;101630.22;1246510;23;677;-65
2023/05/14 04:00:49;;;;;;;;;;;;;;;19.19;65.92;101624.69;1250644;23;652;-65
2023/05/14 04:01:40;;;;;;;;;;;;;;;19.20;66.09;101629.09;1251258;23;676;-65
2023/05/14 04:02:30;;;;;;;;;;;;;;;19.21;66.16;101635.34;1251205;23;644;-65
2023/05/14 04:03:21;;;;;;;;;;;;;;;19.17;65.49;101632.06;1251307;23;629;-65
2023/05/14 04:04:11;;;;;;;;;;;;;;;19.16;65.20;101626.81;1251081;23;666;-65
2023/05/14 04:05:01;;;;;;;;;;;;;;;19.14;65.33;101628.81;1247481;23;694;-65
2023/05/14 04:05:52;;;;;;;;;;;;;;;19.15;66.17;101627.81;1247824;23;617;-64
2023/05/14 04:06:42;;;;;;;;;;;;;;;19.16;65.79;101630.38;1248904;23;645;-65
2023/05/14 04:07:33;;;;;;;;;;;;;;;19.17;65.71;101628.53;1245570;23;669;-65
2023/05/14 04:08:23;;;;;;;;;;;;;;;19.16;65.82;101632.22;1250367;23;681;-65
2023/05/14 04:09:14;;;;;;;;;;;;;;;19.14;65.42;101634.22;1248788;23;701;-65
2023/05/14 04:10:04;;;;;;;;;;;;;;;19.15;65.25;101636.78;1250431;23;646;-65
2023/05/14 04:10:54;;;;;;;;;;;;;;;19.19;65.43;101634.63;1250292;23;685;-65
2023/05/14 04:11:45;;;;;;;;;;;;;;;19.18;65.99;101639.19;1245738;23;615;-65
2023/05/14 04:12:35;;;;;;;;;;;;;;;19.20;65.53;101641.75;1250024;23;677;-65
2023/05/14 04:13:26;;;;;;;;;;;;;;;19.17;65.65;101632.06;1250603;23;661;-65
2023/05/14 04:14:16;;;;;;;;;;;;;;;19.14;65.40;101639.63;1250675;23;638;-65
2023/05/14 04:15:07;;;;;;;;;;;;;;;19.12;66.06;101638.91;1247056;23;677;-65
2023/05/14 04:15:57;;;;;;;;;;;;;;;19.11;65.61;101634.47;1250421;23;677;-65
2023/05/14 04:16:48;;;;;;;;;;;;;;;19.14;66.10;101640.47;1246739;23;599;-65
2023/05/14 04:17:38;;;;;;;;;;;;;;;19.15;65.66;101641.34;1250794;23;814;-65
2023/05/14 04:18:29;;;;;;;;;;;;;;;19.16;65.73;101632.22;1250772;23;658;-65
2023/05/14 04:19:20;;;;;;;;;;;;;;;19.06;66.15;101638.44;1250660;23;685;-64
2023/05/14 04:20:10;;;;;;;;;;;;;;;19.03;65.71;101633.28;1250695;23;670;-65
2023/05/14 04:21:00;;;;;;;;;;;;;;;19.06;65.86;101633.03;1250450;23;1942;-64
2023/05/14 04:21:51;;;;;;;;;;;;;;;19.11;65.68;101634.47;1246363;23;622;-65
2023/05/14 04:22:41;;;;;;;;;;;;;;;19.12;65.97;101630.78;1249336;23;670;-65
2023/05/14 04:23:32;;;;;;;;;;;;;;;19.12;65.89;101636.19;1247182;23;737;-65
2023/05/14 04:24:22;;;;;;;;;;;;;;;19.11;65.49;101626.38;1246436;23;705;-65
2023/05/14 04:25:13;;;;;;;;;;;;;;;19.10;65.48;101635.47;1250627;23;622;-65
2023/05/14 04:26:04;;;;;;;;;;;;;;;19.07;65.30;101626.63;1250489;23;618;-65